createdAt,value
2023-05-16T00:02:07.586Z,96702.95
2023-05-16T00:04:36.839Z,96702.25
2023-05-16T00:07:05.021Z,96700.83
2023-05-16T00:09:32.849Z,96700.91
2023-05-16T00:12:00.991Z,96703.27
2023-05-16T00:14:28.984Z,96702.88
2023-05-16T00:16:59.731Z,96699.58
2023-05-16T00:19:30.174Z,96697.70
2023-05-16T00:21:57.939Z,96702.00
2023-05-16T00:24:25.966Z,96701.06
2023-05-16T00:26:53.811Z,96704.29
2023-05-16T00:29:24.462Z,96706.66
2023-05-16T00:31:52.567Z,96716.30
2023-05-16T00:34:21.481Z,96716.05
2023-05-16T00:36:52.999Z,96717.67
2023-05-16T00:39:21.068Z,96714.42
2023-05-16T00:41:49.177Z,96712.20
2023-05-16T00:44:17.418Z,96719.55
2023-05-16T00:46:45.539Z,96719.14
2023-05-16T00:49:13.493Z,96725.95
2023-05-16T00:51:41.997Z,96719.44
2023-05-16T00:54:10.781Z,96717.10
2023-05-16T00:56:38.547Z,96717.59
2023-05-16T00:59:06.817Z,96716.42
2023-05-16T01:01:35.416Z,96718.13
2023-05-16T01:04:03.727Z,96716.36
2023-05-16T01:06:33.786Z,96713.23
2023-05-16T01:09:01.772Z,96711.73
2023-05-16T01:11:39.684Z,96715.45
2023-05-16T01:14:17.147Z,96714.17
2023-05-16T01:16:51.235Z,96715.81
2023-05-16T01:19:25.229Z,96714.14
2023-05-16T01:22:16.446Z,96715.23
2023-05-16T01:24:53.779Z,96715.67
2023-05-16T01:27:23.202Z,96713.34
2023-05-16T01:29:56.181Z,96715.96
2023-05-16T01:32:24.797Z,96715.98
2023-05-16T01:34:53.360Z,96719.80
2023-05-16T01:37:34.130Z,96725.32
2023-05-16T01:40:13.050Z,96730.60
2023-05-16T01:42:43.886Z,96731.95
2023-05-16T01:45:26.954Z,96731.90
2023-05-16T01:48:07.521Z,96734.63
2023-05-16T01:50:39.129Z,96747.05
2023-05-16T01:53:11.368Z,96740.33
2023-05-16T01:55:58.401Z,96734.23
2023-05-16T01:58:28.629Z,96729.36
2023-05-16T02:01:03.808Z,96735.31
2023-05-16T02:03:32.126Z,96738.63
2023-05-16T02:06:01.090Z,96743.80
2023-05-16T02:08:29.563Z,96746.38
2023-05-16T02:10:57.402Z,96747.45
2023-05-16T02:13:25.205Z,96745.20
2023-05-16T02:15:53.107Z,96752.20
2023-05-16T02:18:20.992Z,96752.73
2023-05-16T02:20:48.894Z,96742.48
2023-05-16T02:23:17.004Z,96734.34
2023-05-16T02:25:44.883Z,96737.68
2023-05-16T02:28:12.820Z,96737.50
2023-05-16T02:30:41.313Z,96744.62
2023-05-16T02:33:10.192Z,96745.52
2023-05-16T02:35:38.119Z,96745.93
2023-05-16T02:38:06.047Z,96751.35
2023-05-16T02:40:33.973Z,96745.27
2023-05-16T02:43:01.883Z,96741.77
2023-05-16T02:45:29.822Z,96744.70
2023-05-16T02:47:57.811Z,96747.48
2023-05-16T02:50:25.550Z,96750.88
2023-05-16T02:52:53.590Z,96750.54
2023-05-16T02:55:22.692Z,96757.16
2023-05-16T02:57:51.197Z,96758.34
2023-05-16T03:00:19.875Z,96759.97
2023-05-16T03:02:48.313Z,96764.83
2023-05-16T03:05:17.188Z,96768.30
2023-05-16T03:07:45.483Z,96772.02
2023-05-16T03:10:13.393Z,96776.44
2023-05-16T03:12:41.355Z,96785.39
2023-05-16T03:15:09.795Z,96784.92
2023-05-16T03:17:37.767Z,96784.05
2023-05-16T03:20:09.037Z,96786.05
2023-05-16T03:22:37.229Z,96780.11
2023-05-16T03:25:05.555Z,96779.16
2023-05-16T03:27:33.538Z,96773.11
2023-05-16T03:30:01.344Z,96773.63
2023-05-16T03:32:29.633Z,96773.67
2023-05-16T03:34:57.534Z,96776.67
2023-05-16T03:37:26.224Z,96774.94
2023-05-16T03:39:54.420Z,96771.34
2023-05-16T03:42:22.341Z,96768.55
2023-05-16T03:44:50.182Z,96760.41
2023-05-16T03:47:18.008Z,96754.47
2023-05-16T03:49:45.778Z,96753.10
2023-05-16T03:52:13.578Z,96755.02
2023-05-16T03:54:41.428Z,96756.58
2023-05-16T03:57:09.568Z,96754.12
2023-05-16T03:59:39.114Z,96752.20
2023-05-16T04:02:07.112Z,96745.05
2023-05-16T04:04:35.377Z,96749.52
2023-05-16T04:07:03.452Z,96750.98
2023-05-16T04:09:31.434Z,96748.13
2023-05-16T04:12:02.012Z,96736.23
2023-05-16T04:14:30.043Z,96735.95
2023-05-16T04:16:58.027Z,96732.34
2023-05-16T04:19:26.198Z,96733.08
2023-05-16T04:21:54.399Z,96726.44
2023-05-16T04:24:26.464Z,96728.36
2023-05-16T04:26:55.361Z,96732.98
2023-05-16T04:29:23.630Z,96741.48
2023-05-16T04:31:51.658Z,96747.59
2023-05-16T04:34:19.661Z,96759.84
2023-05-16T04:36:47.700Z,96766.39
2023-05-16T04:39:15.509Z,96764.81
2023-05-16T04:41:43.383Z,96766.02
2023-05-16T04:44:11.541Z,96765.30
2023-05-16T04:46:39.867Z,96762.28
2023-05-16T04:49:08.324Z,96758.06
2023-05-16T04:51:36.316Z,96760.91
2023-05-16T04:54:05.376Z,96751.64
2023-05-16T04:56:33.172Z,96754.50
2023-05-16T04:59:00.919Z,96756.84
2023-05-16T05:01:28.965Z,96756.32
2023-05-16T05:03:56.866Z,96760.56
2023-05-16T05:06:24.709Z,96756.65
2023-05-16T05:08:53.156Z,96750.54
2023-05-16T05:11:21.534Z,96746.67
2023-05-16T05:13:50.801Z,96749.04
2023-05-16T05:16:20.862Z,96748.13
2023-05-16T05:18:48.785Z,96753.08
2023-05-16T05:21:16.913Z,96756.20
2023-05-16T05:23:44.690Z,96751.80
2023-05-16T05:26:12.661Z,96749.63
2023-05-16T05:28:43.657Z,96750.42
2023-05-16T05:31:16.676Z,96750.17
2023-05-16T05:33:44.551Z,96747.66
2023-05-16T05:36:12.452Z,96748.30
2023-05-16T05:38:40.513Z,96749.27
2023-05-16T05:41:08.415Z,96752.83
2023-05-16T05:43:36.359Z,96751.00
2023-05-16T05:46:04.610Z,96752.73
2023-05-16T05:48:33.128Z,96751.59
2023-05-16T05:51:01.253Z,96752.98
2023-05-16T05:53:29.438Z,96753.24
2023-05-16T05:55:57.257Z,96759.21
2023-05-16T05:58:25.328Z,96761.19
2023-05-16T06:00:53.056Z,96761.88
2023-05-16T06:03:21.723Z,96759.77
2023-05-16T06:05:50.106Z,96760.29
2023-05-16T06:08:18.040Z,96763.94
2023-05-16T06:10:46.199Z,96759.96
2023-05-16T06:13:14.035Z,96763.92
2023-05-16T06:15:41.872Z,96767.12
2023-05-16T06:18:09.907Z,96772.88
2023-05-16T06:20:37.912Z,96768.64
2023-05-16T06:23:05.887Z,96773.70
2023-05-16T06:25:33.659Z,96782.44
2023-05-16T06:28:01.675Z,96783.21
2023-05-16T06:30:29.490Z,96779.55
2023-05-16T06:32:57.297Z,96782.34
2023-05-16T06:35:25.737Z,96782.45
2023-05-16T06:37:53.679Z,96779.11
2023-05-16T06:40:21.514Z,96785.30
2023-05-16T06:42:49.333Z,96791.32
2023-05-16T06:45:17.550Z,96801.23
2023-05-16T06:47:45.575Z,96798.64
2023-05-16T06:50:14.036Z,96798.63
2023-05-16T06:52:42.287Z,96797.91
2023-05-16T06:55:10.789Z,96800.32
2023-05-16T06:57:38.863Z,96800.20
2023-05-16T07:00:08.528Z,96801.01
2023-05-16T07:02:36.448Z,96801.95
2023-05-16T07:05:04.757Z,96802.17
2023-05-16T07:07:32.615Z,96799.23
2023-05-16T07:10:01.007Z,96800.18
2023-05-16T07:12:28.960Z,96804.17
2023-05-16T07:14:56.964Z,96802.28
2023-05-16T07:17:24.868Z,96804.75
2023-05-16T07:19:52.783Z,96806.75
2023-05-16T07:22:20.801Z,96808.52
2023-05-16T07:24:49.060Z,96809.61
2023-05-16T07:27:17.023Z,96809.34
2023-05-16T07:29:44.800Z,96815.10
2023-05-16T07:32:12.711Z,96813.80
2023-05-16T07:34:41.059Z,96814.00
2023-05-16T07:37:12.916Z,96810.62
2023-05-16T07:39:40.971Z,96807.21
2023-05-16T07:42:09.376Z,96802.09
2023-05-16T07:44:37.353Z,96800.19
2023-05-16T07:47:05.405Z,96793.05
2023-05-16T07:49:33.380Z,96795.46
2023-05-16T07:52:01.470Z,96795.52
2023-05-16T07:54:29.335Z,96796.66
2023-05-16T07:56:57.292Z,96796.55
2023-05-16T07:59:25.255Z,96795.83
2023-05-16T08:01:53.232Z,96804.89
2023-05-16T08:04:21.111Z,96806.42
2023-05-16T08:06:50.018Z,96816.30
2023-05-16T08:09:17.962Z,96815.47
2023-05-16T08:11:46.474Z,96812.48
2023-05-16T08:14:14.477Z,96817.84
2023-05-16T08:16:42.524Z,96818.56
2023-05-16T08:19:10.705Z,96813.65
2023-05-16T08:21:38.664Z,96814.10
2023-05-16T08:24:06.789Z,96811.06
2023-05-16T08:26:35.721Z,96808.71
2023-05-16T08:29:03.716Z,96810.08
2023-05-16T08:31:31.836Z,96808.94
2023-05-16T08:34:01.630Z,96808.47
2023-05-16T08:36:29.689Z,96806.96
2023-05-16T08:38:57.681Z,96808.49
2023-05-16T08:41:26.157Z,96808.48
2023-05-16T08:43:54.665Z,96814.45
2023-05-16T08:46:23.574Z,96821.96
2023-05-16T08:48:52.844Z,96817.98
2023-05-16T08:51:21.487Z,96812.44
2023-05-16T08:54:01.578Z,96813.66
2023-05-16T08:56:29.883Z,96818.14
2023-05-16T08:58:58.323Z,96818.52
2023-05-16T09:01:26.522Z,96819.19
2023-05-16T09:03:55.681Z,96817.42
2023-05-16T09:06:24.880Z,96815.54
2023-05-16T09:08:56.529Z,96817.35
2023-05-16T09:11:24.579Z,96812.82
2023-05-16T09:13:52.445Z,96812.73
2023-05-16T09:16:21.198Z,96812.80
2023-05-16T09:18:57.364Z,96814.18
2023-05-16T09:21:29.914Z,96814.67
2023-05-16T09:24:02.735Z,96813.45
2023-05-16T09:26:31.861Z,96823.80
2023-05-16T09:28:59.705Z,96828.98
2023-05-16T09:31:30.744Z,96827.68
2023-05-16T09:33:58.856Z,96827.13
2023-05-16T09:36:26.768Z,96826.42
2023-05-16T09:38:54.705Z,96824.98
2023-05-16T09:41:23.091Z,96818.31
2023-05-16T09:43:51.158Z,96816.31
2023-05-16T09:46:20.011Z,96806.86
2023-05-16T09:48:48.214Z,96798.77
2023-05-16T09:51:16.479Z,96793.42
2023-05-16T09:53:44.384Z,96791.27
2023-05-16T09:56:12.903Z,96785.48
2023-05-16T09:58:42.195Z,96786.09
2023-05-16T10:01:10.996Z,96785.91
2023-05-16T10:03:40.132Z,96777.81
2023-05-16T10:06:09.168Z,96772.63
2023-05-16T10:08:37.696Z,96763.79
2023-05-16T10:11:06.539Z,96759.05
2023-05-16T10:13:35.989Z,96758.20
2023-05-16T10:16:11.501Z,96758.23
2023-05-16T10:18:40.618Z,96759.39
2023-05-16T10:21:11.972Z,96759.58
2023-05-16T10:23:44.240Z,96762.44
2023-05-16T10:26:14.337Z,96759.16
2023-05-16T10:28:42.766Z,96761.50
2023-05-16T10:31:11.439Z,96757.63
2023-05-16T10:33:39.744Z,96753.31
2023-05-16T10:36:12.135Z,96751.69
2023-05-16T10:38:40.729Z,96750.82
2023-05-16T10:41:09.773Z,96749.20
2023-05-16T10:43:37.805Z,96744.52
2023-05-16T10:46:07.796Z,96739.25
2023-05-16T10:48:36.965Z,96742.71
2023-05-16T10:51:25.152Z,96743.64
2023-05-16T10:54:04.852Z,96744.99
2023-05-16T10:56:33.249Z,96746.05
2023-05-16T10:59:01.468Z,96747.68
2023-05-16T11:01:30.541Z,96742.17
2023-05-16T11:03:58.601Z,96741.65
2023-05-16T11:06:27.402Z,96740.09
2023-05-16T11:09:09.882Z,96734.68
2023-05-16T11:11:48.617Z,96734.99
2023-05-16T11:14:22.419Z,96740.65
2023-05-16T11:17:00.183Z,96743.06
2023-05-16T11:19:30.950Z,96739.38
2023-05-16T11:22:12.125Z,96738.20
2023-05-16T11:24:49.003Z,96732.15
2023-05-16T11:27:24.473Z,96718.96
2023-05-16T11:29:53.086Z,96712.01
2023-05-16T11:32:22.469Z,96706.55
2023-05-16T11:34:52.196Z,96704.74
2023-05-16T11:37:21.107Z,96709.20
2023-05-16T11:39:49.289Z,96709.20
2023-05-16T11:42:18.146Z,96708.38
2023-05-16T11:44:46.659Z,96711.81
2023-05-16T11:47:14.690Z,96718.77
2023-05-16T11:49:43.485Z,96714.78
2023-05-16T11:52:11.579Z,96717.64
2023-05-16T11:54:40.641Z,96716.86
2023-05-16T11:57:09.042Z,96711.32
2023-05-16T11:59:37.338Z,96709.60
2023-05-16T12:02:06.136Z,96706.15
2023-05-16T12:04:36.853Z,96705.02
2023-05-16T12:07:05.956Z,96703.49
2023-05-16T12:09:33.975Z,96701.50
2023-05-16T12:12:04.888Z,96702.40
2023-05-16T12:14:32.880Z,96701.94
2023-05-16T12:17:01.373Z,96701.85
2023-05-16T12:19:29.645Z,96700.05
2023-05-16T12:21:57.636Z,96694.40
2023-05-16T12:24:30.339Z,96696.81
2023-05-16T12:26:59.079Z,96692.43
2023-05-16T12:29:27.144Z,96689.67
2023-05-16T12:31:55.176Z,96686.25
2023-05-16T12:34:23.490Z,96682.36
2023-05-16T12:36:53.550Z,96680.27
2023-05-16T12:39:22.984Z,96678.80
2023-05-16T12:41:51.129Z,96675.17
2023-05-16T12:44:19.901Z,96671.86
2023-05-16T12:46:51.591Z,96671.43
2023-05-16T12:49:20.687Z,96668.79
2023-05-16T12:51:50.492Z,96668.64
2023-05-16T12:54:18.719Z,96666.33
2023-05-16T12:56:47.065Z,96663.58
2023-05-16T12:59:15.558Z,96660.00
2023-05-16T13:01:44.774Z,96656.93
2023-05-16T13:04:16.941Z,96651.27
2023-05-16T13:06:58.471Z,96648.91
2023-05-16T13:09:31.415Z,96643.98
2023-05-16T13:12:00.982Z,96641.33
2023-05-16T13:14:29.080Z,96635.93
2023-05-16T13:16:56.930Z,96627.89
2023-05-16T13:19:25.184Z,96616.38
2023-05-16T13:21:53.490Z,96606.56
2023-05-16T13:24:21.568Z,96605.82
2023-05-16T13:26:49.444Z,96606.67
2023-05-16T13:29:17.299Z,96609.27
2023-05-16T13:31:45.310Z,96606.62
2023-05-16T13:34:13.460Z,96604.65
2023-05-16T13:36:53.650Z,96602.84
2023-05-16T13:39:22.712Z,96598.45
2023-05-16T13:41:51.588Z,96592.26
2023-05-16T13:44:19.845Z,96586.41
2023-05-16T13:46:47.893Z,96585.98
2023-05-16T13:49:16.162Z,96588.00
2023-05-16T13:51:44.353Z,96589.86
2023-05-16T13:54:12.409Z,96586.30
2023-05-16T13:56:40.585Z,96587.81
2023-05-16T13:59:10.825Z,96581.29
2023-05-16T14:01:40.494Z,96581.39
2023-05-16T14:04:08.506Z,96581.63
2023-05-16T14:06:37.595Z,96582.78
2023-05-16T14:09:05.485Z,96583.75
2023-05-16T14:11:33.352Z,96582.89
2023-05-16T14:14:01.178Z,96580.70
2023-05-16T14:16:31.219Z,96581.13
2023-05-16T14:18:59.333Z,96579.92
2023-05-16T14:21:27.289Z,96577.39
2023-05-16T14:23:55.259Z,96578.83
2023-05-16T14:26:25.768Z,96576.92
2023-05-16T14:28:53.794Z,96579.10
2023-05-16T14:31:22.150Z,96579.67
2023-05-16T14:33:50.564Z,96578.33
2023-05-16T14:36:18.614Z,96577.14
2023-05-16T14:38:46.786Z,96576.53
2023-05-16T14:41:14.791Z,96579.58
2023-05-16T14:43:42.707Z,96578.55
2023-05-16T14:46:11.276Z,96578.45
2023-05-16T14:48:39.555Z,96581.75
2023-05-16T14:51:07.395Z,96578.02
2023-05-16T14:53:35.475Z,96575.52
2023-05-16T14:56:03.980Z,96574.17
2023-05-16T14:58:32.246Z,96576.69
2023-05-16T15:01:00.123Z,96574.60
2023-05-16T15:03:28.029Z,96572.47
2023-05-16T15:05:56.062Z,96569.55
2023-05-16T15:08:24.061Z,96568.94
2023-05-16T15:10:51.899Z,96560.15
2023-05-16T15:13:19.762Z,96559.56
2023-05-16T15:15:47.731Z,96556.31
2023-05-16T15:18:15.901Z,96553.27
2023-05-16T15:20:43.800Z,96551.65
2023-05-16T15:23:12.169Z,96553.16
2023-05-16T15:25:40.137Z,96545.80
2023-05-16T15:28:08.047Z,96544.70
2023-05-16T15:30:36.140Z,96540.44
2023-05-16T15:33:04.092Z,96539.19
2023-05-16T15:35:32.569Z,96529.92
2023-05-16T15:38:00.738Z,96534.17
2023-05-16T15:40:28.735Z,96539.60
2023-05-16T15:42:56.639Z,96540.09
2023-05-16T15:45:24.565Z,96537.30
2023-05-16T15:47:52.502Z,96536.27
2023-05-16T15:50:20.814Z,96537.16
2023-05-16T15:52:49.293Z,96536.24
2023-05-16T15:55:17.320Z,96531.95
2023-05-16T15:57:45.358Z,96533.04
2023-05-16T16:00:13.757Z,96531.10
2023-05-16T16:02:44.971Z,96528.73
2023-05-16T16:05:13.064Z,96530.60
2023-05-16T16:07:41.340Z,96539.36
2023-05-16T16:10:10.037Z,96543.03
2023-05-16T16:12:37.976Z,96542.30
2023-05-16T16:15:06.934Z,96540.32
2023-05-16T16:17:34.941Z,96544.81
2023-05-16T16:20:02.884Z,96548.02
2023-05-16T16:22:31.816Z,96545.74
2023-05-16T16:25:00.808Z,96547.96
2023-05-16T16:27:28.846Z,96543.98
2023-05-16T16:29:56.760Z,96547.77
2023-05-16T16:32:24.718Z,96547.64
2023-05-16T16:34:52.864Z,96546.48
2023-05-16T16:37:21.132Z,96542.61
2023-05-16T16:39:49.016Z,96546.45
2023-05-16T16:42:16.888Z,96549.33
2023-05-16T16:44:44.943Z,96554.27
2023-05-16T16:47:13.186Z,96552.12
2023-05-16T16:49:41.624Z,96552.05
2023-05-16T16:52:09.805Z,96550.45
2023-05-16T16:54:37.697Z,96546.53
2023-05-16T16:57:05.751Z,96541.73
2023-05-16T16:59:33.632Z,96539.45
2023-05-16T17:02:01.564Z,96533.73
2023-05-16T17:04:29.563Z,96526.22
2023-05-16T17:06:57.983Z,96528.60
2023-05-16T17:09:27.266Z,96526.17
2023-05-16T17:11:55.257Z,96525.50
2023-05-16T17:14:23.823Z,96523.61
2023-05-16T17:16:52.206Z,96530.29
2023-05-16T17:19:20.214Z,96528.42
2023-05-16T17:21:48.243Z,96530.71
2023-05-16T17:24:16.330Z,96532.86
2023-05-16T17:26:44.298Z,96532.17
2023-05-16T17:29:12.688Z,96534.37
2023-05-16T17:31:40.657Z,96539.34
2023-05-16T17:34:08.850Z,96541.09
2023-05-16T17:36:38.236Z,96537.77
2023-05-16T17:39:08.285Z,96531.77
2023-05-16T17:41:36.558Z,96532.94
2023-05-16T17:44:06.941Z,96535.33
2023-05-16T17:46:36.889Z,96533.75
2023-05-16T17:49:06.780Z,96532.30
2023-05-16T17:51:47.583Z,96532.81
2023-05-16T17:54:17.049Z,96527.90
2023-05-16T17:56:48.742Z,96528.94
2023-05-16T17:59:16.825Z,96530.70
2023-05-16T18:01:45.051Z,96528.53
2023-05-16T18:04:13.441Z,96524.23
2023-05-16T18:06:42.023Z,96520.89
2023-05-16T18:09:10.500Z,96517.88
2023-05-16T18:11:39.559Z,96516.62
2023-05-16T18:14:13.141Z,96520.54
2023-05-16T18:16:41.141Z,96518.92
2023-05-16T18:19:09.208Z,96518.65
2023-05-16T18:21:38.359Z,96519.56
2023-05-16T18:24:08.569Z,96518.27
2023-05-16T18:26:36.850Z,96517.98
2023-05-16T18:29:05.528Z,96520.12
2023-05-16T18:31:34.111Z,96522.73
2023-05-16T18:34:03.028Z,96525.23
2023-05-16T18:36:32.104Z,96527.20
2023-05-16T18:38:59.955Z,96531.64
2023-05-16T18:41:30.177Z,96531.80
2023-05-16T18:43:58.078Z,96532.84
2023-05-16T18:46:25.953Z,96526.91
2023-05-16T18:48:57.752Z,96525.71
2023-05-16T18:51:25.843Z,96524.31
2023-05-16T18:53:54.047Z,96524.48
2023-05-16T18:56:22.588Z,96519.09
2023-05-16T18:58:50.948Z,96517.39
2023-05-16T19:01:22.339Z,96514.38
2023-05-16T19:03:50.481Z,96519.20
2023-05-16T19:06:18.620Z,96516.38
2023-05-16T19:08:47.994Z,96517.69
2023-05-16T19:11:17.729Z,96515.73
2023-05-16T19:13:45.932Z,96511.42
2023-05-16T19:16:14.283Z,96511.61
2023-05-16T19:18:42.374Z,96514.27
2023-05-16T19:21:13.793Z,96512.22
2023-05-16T19:23:42.041Z,96508.63
2023-05-16T19:26:10.200Z,96510.59
2023-05-16T19:28:38.286Z,96506.23
2023-05-16T19:31:06.971Z,96507.23
2023-05-16T19:33:34.969Z,96508.42
2023-05-16T19:36:06.117Z,96506.03
2023-05-16T19:38:34.012Z,96506.96
2023-05-16T19:41:02.015Z,96505.77
2023-05-16T19:43:30.022Z,96504.55
2023-05-16T19:45:57.920Z,96499.86
2023-05-16T19:48:25.952Z,96501.60
2023-05-16T19:50:54.142Z,96500.41
2023-05-16T19:53:22.556Z,96500.98
2023-05-16T19:55:50.712Z,96500.63
2023-05-16T19:58:18.647Z,96499.23
2023-05-16T20:00:47.384Z,96498.80
2023-05-16T20:03:15.693Z,96500.33
2023-05-16T20:05:43.845Z,96494.91
2023-05-16T20:08:12.311Z,96491.11
2023-05-16T20:10:40.492Z,96486.52
2023-05-16T20:13:08.576Z,96487.21
2023-05-16T20:15:36.544Z,96484.88
2023-05-16T20:18:04.709Z,96488.23
2023-05-16T20:20:32.824Z,96487.59
2023-05-16T20:23:00.903Z,96487.50
2023-05-16T20:25:28.895Z,96481.78
2023-05-16T20:27:57.048Z,96480.86
2023-05-16T20:30:24.924Z,96473.71
2023-05-16T20:32:53.024Z,96476.14
2023-05-16T20:35:21.038Z,96475.66
2023-05-16T20:37:49.143Z,96471.93
2023-05-16T20:40:17.412Z,96474.70
2023-05-16T20:42:45.224Z,96471.73
2023-05-16T20:45:13.074Z,96472.56
2023-05-16T20:47:40.908Z,96474.77
2023-05-16T20:50:09.142Z,96474.58
2023-05-16T20:52:37.198Z,96475.64
2023-05-16T20:55:05.590Z,96478.42
2023-05-16T20:57:34.194Z,96480.32
2023-05-16T21:00:02.251Z,96477.02
2023-05-16T21:02:30.551Z,96476.85
2023-05-16T21:05:02.185Z,96473.05
2023-05-16T21:07:38.052Z,96476.33
2023-05-16T21:10:06.518Z,96478.11
2023-05-16T21:12:34.452Z,96479.00
2023-05-16T21:15:03.829Z,96481.84
2023-05-16T21:17:32.031Z,96479.98
2023-05-16T21:20:00.660Z,96479.90
2023-05-16T21:22:28.677Z,96481.58
2023-05-16T21:24:56.619Z,96487.01
2023-05-16T21:27:24.457Z,96484.74
2023-05-16T21:29:52.571Z,96483.17
2023-05-16T21:32:20.397Z,96485.04
2023-05-16T21:34:48.277Z,96486.35
2023-05-16T21:37:17.000Z,96482.36
2023-05-16T21:39:44.848Z,96484.66
2023-05-16T21:42:13.160Z,96479.58
2023-05-16T21:44:41.451Z,96475.97
2023-05-16T21:47:09.283Z,96473.56
2023-05-16T21:49:37.290Z,96474.10
2023-05-16T21:52:07.998Z,96471.80
2023-05-16T21:54:36.200Z,96466.16
2023-05-16T21:57:04.300Z,96465.17
2023-05-16T21:59:32.074Z,96465.69
2023-05-16T22:01:59.961Z,96466.02
2023-05-16T22:04:28.124Z,96466.73
2023-05-16T22:06:56.167Z,96468.64
2023-05-16T22:09:24.250Z,96463.21
2023-05-16T22:11:52.067Z,96468.16
2023-05-16T22:14:20.068Z,96466.54
2023-05-16T22:16:48.201Z,96467.08
2023-05-16T22:19:16.164Z,96468.30
2023-05-16T22:21:44.428Z,96471.67
2023-05-16T22:24:12.332Z,96472.58
2023-05-16T22:26:40.608Z,96472.25
2023-05-16T22:29:08.567Z,96476.28
2023-05-16T22:31:36.441Z,96479.48
2023-05-16T22:34:04.511Z,96480.98
2023-05-16T22:36:32.628Z,96476.80
2023-05-16T22:39:00.563Z,96480.27
2023-05-16T22:41:31.306Z,96478.98
2023-05-16T22:43:59.211Z,96480.07
2023-05-16T22:46:27.250Z,96479.06
2023-05-16T22:48:55.208Z,96483.30
2023-05-16T22:51:23.360Z,96481.47
2023-05-16T22:53:51.222Z,96483.16
2023-05-16T22:56:19.084Z,96486.33
2023-05-16T22:58:47.124Z,96487.45
2023-05-16T23:01:15.256Z,96489.38
2023-05-16T23:03:43.479Z,96485.45
2023-05-16T23:06:11.514Z,96481.92
2023-05-16T23:08:39.519Z,96483.64
2023-05-16T23:11:07.491Z,96481.91
2023-05-16T23:13:35.592Z,96476.38
2023-05-16T23:16:03.552Z,96477.83
2023-05-16T23:18:31.601Z,96478.13
2023-05-16T23:20:59.839Z,96477.14
2023-05-16T23:23:27.799Z,96476.84
2023-05-16T23:25:55.674Z,96474.71
2023-05-16T23:28:23.720Z,96473.02
2023-05-16T23:30:51.615Z,96467.68
2023-05-16T23:33:19.654Z,96466.75
2023-05-16T23:35:47.684Z,96469.23
2023-05-16T23:38:16.049Z,96467.88
2023-05-16T23:40:44.010Z,96466.27
2023-05-16T23:43:11.869Z,96468.74
2023-05-16T23:45:39.926Z,96466.75
2023-05-16T23:48:08.095Z,96466.27
2023-05-16T23:50:36.109Z,96469.36
2023-05-16T23:53:04.392Z,96470.66
2023-05-16T23:55:32.360Z,96467.45
2023-05-16T23:58:00.305Z,96468.41
